createdAt,value
2022-10-14T00:00:53.058Z,9.10
2022-10-14T00:03:20.111Z,9.10
2022-10-14T00:05:48.625Z,9.10
2022-10-14T00:08:15.789Z,9.20
2022-10-14T00:10:42.999Z,9.30
2022-10-14T00:13:10.027Z,9.30
2022-10-14T00:15:40.092Z,9.40
2022-10-14T00:18:08.891Z,9.40
2022-10-14T00:20:36.499Z,9.30
2022-10-14T00:23:03.976Z,9.30
2022-10-14T00:25:31.306Z,9.40
2022-10-14T00:27:58.482Z,9.40
2022-10-14T00:30:25.484Z,9.40
2022-10-14T00:32:52.704Z,9.40
2022-10-14T00:35:20.067Z,9.40
2022-10-14T00:37:47.186Z,9.40
2022-10-14T00:40:14.393Z,9.40
2022-10-14T00:42:42.040Z,9.60
2022-10-14T00:45:20.510Z,9.60
2022-10-14T00:47:50.494Z,9.60
2022-10-14T00:50:18.374Z,9.60
2022-10-14T00:52:46.480Z,9.60
2022-10-14T00:55:18.178Z,9.60
2022-10-14T00:57:45.823Z,9.60
2022-10-14T01:00:16.452Z,9.60
2022-10-14T01:02:43.577Z,9.60
2022-10-14T01:05:13.405Z,9.70
2022-10-14T01:08:20.335Z,9.60
2022-10-14T01:10:59.745Z,9.60
2022-10-14T01:13:33.972Z,9.60
2022-10-14T01:16:15.398Z,9.70
2022-10-14T01:18:43.619Z,9.70
2022-10-14T01:21:25.226Z,9.70
2022-10-14T01:24:02.871Z,9.70
2022-10-14T01:26:53.257Z,9.80
2022-10-14T01:29:48.567Z,9.80
2022-10-14T01:32:24.557Z,9.90
2022-10-14T01:35:01.750Z,9.80
2022-10-14T01:37:32.998Z,9.90
2022-10-14T01:40:05.415Z,9.90
2022-10-14T01:42:37.296Z,9.90
2022-10-14T01:45:12.223Z,9.90
2022-10-14T01:47:41.557Z,10.00
2022-10-14T01:50:14.719Z,10.00
2022-10-14T01:52:48.585Z,10.00
2022-10-14T01:55:22.443Z,10.00
2022-10-14T01:57:52.446Z,10.00
2022-10-14T02:00:19.829Z,10.00
2022-10-14T02:02:46.959Z,10.00
2022-10-14T02:05:22.579Z,10.00
2022-10-14T02:07:57.493Z,10.00
2022-10-14T02:10:39.765Z,10.10
2022-10-14T02:13:42.909Z,10.10
2022-10-14T02:16:15.015Z,10.10
2022-10-14T02:18:54.227Z,10.00
2022-10-14T02:21:27.553Z,10.00
2022-10-14T02:24:08.187Z,10.00
2022-10-14T02:26:38.871Z,10.00
2022-10-14T02:29:06.419Z,10.00
2022-10-14T02:31:38.005Z,10.10
2022-10-14T02:34:09.734Z,10.10
2022-10-14T02:36:38.777Z,10.00
2022-10-14T02:39:09.927Z,10.00
2022-10-14T02:41:39.869Z,10.00
2022-10-14T02:44:08.311Z,10.00
2022-10-14T02:46:35.928Z,9.90
2022-10-14T02:49:03.157Z,9.90
2022-10-14T02:51:30.247Z,9.90
2022-10-14T02:53:57.957Z,9.80
2022-10-14T02:56:27.035Z,9.90
2022-10-14T02:58:54.178Z,9.90
2022-10-14T03:01:23.099Z,9.80
2022-10-14T03:03:50.287Z,9.80
2022-10-14T03:06:17.932Z,9.70
2022-10-14T03:08:47.310Z,9.70
2022-10-14T03:11:14.363Z,9.70
2022-10-14T03:13:41.570Z,9.70
2022-10-14T03:16:09.042Z,9.70
2022-10-14T03:18:40.931Z,9.60
2022-10-14T03:21:18.644Z,9.50
2022-10-14T03:23:45.888Z,9.50
2022-10-14T03:26:14.246Z,9.40
2022-10-14T03:28:46.393Z,9.40
2022-10-14T03:31:22.246Z,9.40
2022-10-14T03:34:04.087Z,9.30
2022-10-14T03:36:32.071Z,9.40
2022-10-14T03:38:59.215Z,9.40
2022-10-14T03:41:36.260Z,9.30
2022-10-14T03:44:05.180Z,9.40
2022-10-14T03:46:34.200Z,9.40
2022-10-14T03:49:02.129Z,9.50
2022-10-14T03:51:29.671Z,9.40
2022-10-14T03:54:07.616Z,9.40
2022-10-14T03:56:35.867Z,9.40
2022-10-14T03:59:04.556Z,9.40
2022-10-14T04:01:32.650Z,9.40
2022-10-14T04:04:19.690Z,9.40
2022-10-14T04:06:47.804Z,9.40
2022-10-14T04:09:17.706Z,9.40
2022-10-14T04:11:44.925Z,9.40
2022-10-14T04:14:27.396Z,9.40
2022-10-14T04:16:56.294Z,9.40
2022-10-14T04:19:23.378Z,9.40
2022-10-14T04:21:50.544Z,9.40
2022-10-14T04:24:21.142Z,9.40
2022-10-14T04:26:54.458Z,9.40
2022-10-14T04:29:30.929Z,9.40
2022-10-14T04:32:04.468Z,9.40
2022-10-14T04:34:31.827Z,9.50
2022-10-14T04:36:58.860Z,9.50
2022-10-14T04:39:43.236Z,9.50
2022-10-14T04:42:11.117Z,9.40
2022-10-14T04:44:38.713Z,9.40
2022-10-14T04:47:06.635Z,9.40
2022-10-14T04:49:33.810Z,9.40
2022-10-14T04:52:08.630Z,9.40
2022-10-14T04:54:41.612Z,9.50
2022-10-14T04:57:10.115Z,9.50
2022-10-14T04:59:38.572Z,9.40
2022-10-14T05:02:15.535Z,9.40
2022-10-14T05:04:49.989Z,9.40
2022-10-14T05:07:17.772Z,9.30
2022-10-14T05:09:51.183Z,9.30
2022-10-14T05:12:26.107Z,9.30
2022-10-14T05:14:58.912Z,9.30
2022-10-14T05:17:34.446Z,9.20
2022-10-14T05:20:01.826Z,9.20
2022-10-14T05:22:29.872Z,9.20
2022-10-14T05:24:57.196Z,9.30
2022-10-14T05:27:25.169Z,9.30
2022-10-14T05:29:54.090Z,9.30
2022-10-14T05:32:22.651Z,9.40
2022-10-14T05:34:53.045Z,9.40
2022-10-14T05:37:28.724Z,9.40
2022-10-14T05:39:56.379Z,9.40
2022-10-14T05:42:26.463Z,9.40
2022-10-14T05:44:56.455Z,9.40
2022-10-14T05:47:24.766Z,9.50
2022-10-14T05:49:57.574Z,9.50
2022-10-14T05:52:25.065Z,9.40
2022-10-14T05:54:53.639Z,9.40
2022-10-14T05:57:24.726Z,9.40
2022-10-14T05:59:51.904Z,9.50
2022-10-14T06:02:19.390Z,9.40
2022-10-14T06:04:47.500Z,9.40
2022-10-14T06:07:15.163Z,9.50
2022-10-14T06:09:42.620Z,9.50
2022-10-14T06:12:10.157Z,9.60
2022-10-14T06:14:38.889Z,9.70
2022-10-14T06:17:07.017Z,9.70
2022-10-14T06:19:34.146Z,9.80
2022-10-14T06:22:01.414Z,9.80
2022-10-14T06:24:28.485Z,9.80
2022-10-14T06:26:55.684Z,9.70
2022-10-14T06:29:26.347Z,9.80
2022-10-14T06:31:53.457Z,9.80
2022-10-14T06:34:23.202Z,9.80
2022-10-14T06:36:50.537Z,9.90
2022-10-14T06:39:17.838Z,9.90
2022-10-14T06:41:44.951Z,9.90
2022-10-14T06:44:19.721Z,10.00
2022-10-14T06:46:47.329Z,10.00
2022-10-14T06:49:14.768Z,10.10
2022-10-14T06:51:42.023Z,10.20
2022-10-14T06:54:09.303Z,10.20
2022-10-14T06:56:36.420Z,10.30
2022-10-14T06:59:05.813Z,10.30
2022-10-14T07:01:33.114Z,10.40
2022-10-14T07:04:00.120Z,10.50
2022-10-14T07:06:27.257Z,10.50
2022-10-14T07:08:54.343Z,10.60
2022-10-14T07:11:21.433Z,10.70
2022-10-14T07:13:48.483Z,10.60
2022-10-14T07:16:15.593Z,10.70
2022-10-14T07:18:42.698Z,10.70
2022-10-14T07:21:09.955Z,10.70
2022-10-14T07:23:37.014Z,10.80
2022-10-14T07:26:04.240Z,11.00
2022-10-14T07:28:31.553Z,11.10
2022-10-14T07:31:01.544Z,11.10
2022-10-14T07:33:29.134Z,11.20
2022-10-14T07:36:00.568Z,11.20
2022-10-14T07:38:27.618Z,11.30
2022-10-14T07:40:58.763Z,11.30
2022-10-14T07:43:28.068Z,11.40
2022-10-14T07:46:01.018Z,11.40
2022-10-14T07:48:38.733Z,11.50
2022-10-14T07:51:16.851Z,11.60
2022-10-14T07:53:43.965Z,11.70
2022-10-14T07:56:10.999Z,11.70
2022-10-14T07:58:42.218Z,11.80
2022-10-14T08:01:11.500Z,11.70
2022-10-14T08:03:38.534Z,11.70
2022-10-14T08:06:06.096Z,11.70
2022-10-14T08:08:33.713Z,11.80
2022-10-14T08:11:04.663Z,11.80
2022-10-14T08:13:33.212Z,11.80
2022-10-14T08:16:01.365Z,11.90
2022-10-14T08:18:30.055Z,12.00
2022-10-14T08:20:57.407Z,12.10
2022-10-14T08:23:24.668Z,12.10
2022-10-14T08:25:51.899Z,12.20
2022-10-14T08:28:19.300Z,12.20
2022-10-14T08:30:48.210Z,12.40
2022-10-14T08:33:15.257Z,12.40
2022-10-14T08:35:42.491Z,12.50
2022-10-14T08:38:09.740Z,12.60
2022-10-14T08:40:56.920Z,12.60
2022-10-14T08:43:32.807Z,13.00
2022-10-14T08:46:12.510Z,13.20
2022-10-14T08:48:40.113Z,13.40
2022-10-14T08:51:13.417Z,13.40
2022-10-14T08:53:46.295Z,13.40
2022-10-14T08:56:14.725Z,13.40
2022-10-14T08:58:47.923Z,13.40
2022-10-14T09:01:36.605Z,13.50
2022-10-14T09:04:06.567Z,13.50
2022-10-14T09:06:36.325Z,13.70
2022-10-14T09:09:12.955Z,13.60
2022-10-14T09:11:43.688Z,13.60
2022-10-14T09:14:18.627Z,13.70
2022-10-14T09:16:51.848Z,13.90
2022-10-14T09:19:32.768Z,13.90
2022-10-14T09:22:01.555Z,14.00
2022-10-14T09:24:35.991Z,14.00
2022-10-14T09:27:07.313Z,14.00
2022-10-14T09:30:00.639Z,13.90
2022-10-14T09:32:47.446Z,14.10
2022-10-14T09:35:17.155Z,14.30
2022-10-14T09:37:44.445Z,14.40
2022-10-14T09:40:25.330Z,14.50
2022-10-14T09:43:13.695Z,14.70
2022-10-14T09:46:05.411Z,14.80
2022-10-14T09:48:32.527Z,14.70
2022-10-14T09:51:03.406Z,14.80
2022-10-14T09:53:42.971Z,14.70
2022-10-14T09:56:11.841Z,14.90
2022-10-14T09:58:51.124Z,15.00
2022-10-14T10:01:22.285Z,15.20
2022-10-14T10:03:51.270Z,15.40
2022-10-14T10:06:21.527Z,15.60
2022-10-14T10:08:58.595Z,15.90
2022-10-14T10:11:41.703Z,16.30
2022-10-14T10:14:33.864Z,16.70
2022-10-14T10:17:08.534Z,17.00
2022-10-14T10:19:37.239Z,17.10
2022-10-14T10:25:13.368Z,17.80
2022-10-14T10:27:42.597Z,18.20
2022-10-14T10:30:33.044Z,18.40
2022-10-14T10:33:24.769Z,18.70
2022-10-14T10:36:05.941Z,18.70
2022-10-14T10:38:37.001Z,18.70
2022-10-14T10:41:31.464Z,18.90
2022-10-14T10:44:06.236Z,19.10
2022-10-14T10:46:56.730Z,19.30
2022-10-14T10:49:45.418Z,19.30
2022-10-14T10:52:52.468Z,19.50
2022-10-14T10:56:08.325Z,19.50
2022-10-14T10:58:56.620Z,19.70
2022-10-14T11:01:41.146Z,19.80
2022-10-14T11:04:35.694Z,19.70
2022-10-14T11:07:42.662Z,19.80
2022-10-14T11:10:41.096Z,19.90
2022-10-14T11:13:17.342Z,19.80
2022-10-14T11:15:58.382Z,20.00
2022-10-14T11:18:29.195Z,20.10
2022-10-14T11:21:22.223Z,20.20
2022-10-14T11:24:04.809Z,20.40
2022-10-14T11:26:59.486Z,20.40
2022-10-14T11:29:49.876Z,20.30
2022-10-14T11:32:30.711Z,20.40
2022-10-14T11:35:17.679Z,20.50
2022-10-14T11:38:16.892Z,20.50
2022-10-14T11:41:23.855Z,20.60
2022-10-14T11:44:11.313Z,20.70
2022-10-14T11:46:42.501Z,20.90
2022-10-14T11:49:22.792Z,20.70
2022-10-14T11:51:57.481Z,20.40
2022-10-14T11:54:35.305Z,20.30
2022-10-14T11:57:08.045Z,20.10
2022-10-14T11:59:38.525Z,20.10
2022-10-14T12:02:34.207Z,20.00
2022-10-14T12:05:29.985Z,19.80
2022-10-14T12:08:16.964Z,20.10
2022-10-14T12:10:47.979Z,20.10
2022-10-14T12:13:18.326Z,20.20
2022-10-14T12:15:50.805Z,20.40
2022-10-14T12:18:19.484Z,20.20
2022-10-14T12:21:06.388Z,20.00
2022-10-14T12:23:39.656Z,19.90
2022-10-14T12:26:25.883Z,19.80
2022-10-14T12:28:54.598Z,19.50
2022-10-14T12:31:39.576Z,19.60
2022-10-14T12:34:14.052Z,19.60
2022-10-14T12:36:44.793Z,19.70
2022-10-14T12:39:19.442Z,19.80
2022-10-14T12:42:11.500Z,19.80
2022-10-14T12:44:56.587Z,19.70
2022-10-14T12:47:29.126Z,19.50
2022-10-14T12:49:59.144Z,19.50
2022-10-14T12:52:32.409Z,19.70
2022-10-14T12:55:05.144Z,19.70
2022-10-14T12:57:37.327Z,19.80
2022-10-14T13:00:27.107Z,19.90
2022-10-14T13:03:00.201Z,20.00
2022-10-14T13:05:32.544Z,20.00
2022-10-14T13:08:20.334Z,19.90
2022-10-14T13:10:50.611Z,19.80
2022-10-14T13:13:38.943Z,19.90
2022-10-14T13:16:08.056Z,20.00
2022-10-14T13:18:40.039Z,20.20
2022-10-14T13:21:09.407Z,20.40
2022-10-14T13:23:41.647Z,20.40
2022-10-14T13:26:36.702Z,20.40
2022-10-14T13:29:23.681Z,20.00
2022-10-14T13:32:22.767Z,20.00
2022-10-14T13:35:00.491Z,19.90
2022-10-14T13:37:54.489Z,19.90
2022-10-14T13:40:27.373Z,19.80
2022-10-14T13:42:57.607Z,19.70
2022-10-14T13:45:48.214Z,19.70
2022-10-14T13:48:24.274Z,19.60
2022-10-14T13:50:58.688Z,19.40
2022-10-14T13:53:33.473Z,19.30
2022-10-14T13:56:00.727Z,19.20
2022-10-14T13:58:27.820Z,19.10
2022-10-14T14:00:58.544Z,19.00
2022-10-14T14:03:29.068Z,19.00
2022-10-14T14:05:57.162Z,19.00
2022-10-14T14:08:40.404Z,18.90
2022-10-14T14:11:16.652Z,18.80
2022-10-14T14:14:06.828Z,18.70
2022-10-14T14:16:38.000Z,18.60
2022-10-14T14:19:10.040Z,18.60
2022-10-14T14:21:37.993Z,18.50
2022-10-14T14:24:16.769Z,18.50
2022-10-14T14:26:54.054Z,18.40
2022-10-14T14:29:27.806Z,18.40
2022-10-14T14:32:12.828Z,18.40
2022-10-14T14:34:44.387Z,18.30
2022-10-14T14:37:43.878Z,18.30
2022-10-14T14:40:32.536Z,18.20
2022-10-14T14:43:03.170Z,18.10
2022-10-14T14:45:36.038Z,18.10
2022-10-14T14:48:06.806Z,18.10
2022-10-14T14:50:39.419Z,18.10
2022-10-14T14:53:12.428Z,18.10
2022-10-14T14:56:04.078Z,18.00
2022-10-14T14:58:35.242Z,18.00
2022-10-14T15:01:02.753Z,17.90
2022-10-14T15:03:34.662Z,17.80
2022-10-14T15:06:04.255Z,17.80
2022-10-14T15:08:36.559Z,17.70
2022-10-14T15:11:04.590Z,17.70
2022-10-14T15:13:32.721Z,17.60
2022-10-14T15:16:00.266Z,17.50
2022-10-14T15:18:30.564Z,17.50
2022-10-14T15:21:13.419Z,17.40
2022-10-14T15:23:42.855Z,17.40
2022-10-14T15:26:34.202Z,17.30
2022-10-14T15:29:08.947Z,17.20
2022-10-14T15:31:40.177Z,17.10
2022-10-14T15:34:18.805Z,16.90
2022-10-14T15:36:48.634Z,16.80
2022-10-14T15:39:21.565Z,16.70
2022-10-14T15:41:50.162Z,16.50
2022-10-14T15:44:29.143Z,16.40
2022-10-14T15:47:18.033Z,16.30
2022-10-14T15:49:46.110Z,16.10
2022-10-14T15:52:16.028Z,16.00
2022-10-14T15:54:45.958Z,15.90
2022-10-14T15:57:16.723Z,15.80
2022-10-14T15:59:47.977Z,15.60
2022-10-14T16:02:15.028Z,15.50
2022-10-14T16:05:00.668Z,15.40
2022-10-14T16:07:29.167Z,15.30
2022-10-14T16:09:56.428Z,15.20
2022-10-14T16:12:23.801Z,15.10
2022-10-14T16:14:51.123Z,15.00
2022-10-14T16:17:19.827Z,14.80
2022-10-14T16:19:49.575Z,14.70
2022-10-14T16:22:17.846Z,14.60
2022-10-14T16:24:46.300Z,14.50
2022-10-14T16:27:14.429Z,14.50
2022-10-14T16:29:41.686Z,14.40
2022-10-14T16:32:10.332Z,14.30
2022-10-14T16:34:39.869Z,14.20
2022-10-14T16:37:09.597Z,14.10
2022-10-14T16:39:40.986Z,14.00
2022-10-14T16:42:10.344Z,13.90
2022-10-14T16:44:41.258Z,13.80
2022-10-14T16:47:17.369Z,13.80
2022-10-14T16:49:48.638Z,13.70
2022-10-14T16:52:18.875Z,13.70
2022-10-14T16:54:50.125Z,13.70
2022-10-14T16:57:20.377Z,13.60
2022-10-14T16:59:47.651Z,13.60
2022-10-14T17:02:20.940Z,13.50
2022-10-14T17:04:49.838Z,13.50
2022-10-14T17:07:22.827Z,13.40
2022-10-14T17:09:55.211Z,13.30
2022-10-14T17:12:22.633Z,13.20
2022-10-14T17:14:50.815Z,13.20
2022-10-14T17:17:19.519Z,13.10
2022-10-14T17:19:56.965Z,13.10
2022-10-14T17:22:25.955Z,13.00
2022-10-14T17:24:55.104Z,12.90
2022-10-14T17:27:27.052Z,12.90
2022-10-14T17:29:59.579Z,12.80
2022-10-14T17:32:28.290Z,12.70
2022-10-14T17:34:56.806Z,12.60
2022-10-14T17:37:24.397Z,12.50
2022-10-14T17:39:53.911Z,12.50
2022-10-14T17:42:21.500Z,12.40
2022-10-14T17:44:50.490Z,12.40
2022-10-14T17:47:19.567Z,12.40
2022-10-14T17:49:47.224Z,12.40
2022-10-14T17:52:14.414Z,12.30
2022-10-14T17:54:41.535Z,12.30
2022-10-14T17:57:08.967Z,12.20
2022-10-14T17:59:36.030Z,12.20
2022-10-14T18:02:03.780Z,12.10
2022-10-14T18:04:32.775Z,12.10
2022-10-14T18:07:00.401Z,12.00
2022-10-14T18:09:28.293Z,12.00
2022-10-14T18:12:13.167Z,12.00
2022-10-14T18:14:41.046Z,11.90
2022-10-14T18:17:11.023Z,11.90
2022-10-14T18:19:40.983Z,11.80
2022-10-14T18:22:08.981Z,11.80
2022-10-14T18:24:38.467Z,11.80
2022-10-14T18:27:15.162Z,11.80
2022-10-14T18:29:43.694Z,11.80
2022-10-14T18:32:11.060Z,11.80
2022-10-14T18:34:42.255Z,11.70
2022-10-14T18:37:10.325Z,11.70
2022-10-14T18:39:38.382Z,11.60
2022-10-14T18:42:06.968Z,11.60
2022-10-14T18:44:34.061Z,11.50
2022-10-14T18:47:01.142Z,11.50
2022-10-14T18:49:28.444Z,11.40
2022-10-14T18:51:55.500Z,11.40
2022-10-14T18:54:24.912Z,11.40
2022-10-14T18:56:52.465Z,11.40
2022-10-14T18:59:23.344Z,11.40
2022-10-14T19:01:53.623Z,11.30
2022-10-14T19:04:24.412Z,11.30
2022-10-14T19:06:51.660Z,11.30
2022-10-14T19:09:21.759Z,11.30
2022-10-14T19:11:51.523Z,11.30
2022-10-14T19:14:18.907Z,11.30
2022-10-14T19:16:49.640Z,11.30
2022-10-14T19:19:19.667Z,11.30
2022-10-14T19:22:03.170Z,11.10
2022-10-14T19:24:31.488Z,11.10
2022-10-14T19:26:58.632Z,11.00
2022-10-14T19:29:25.821Z,11.00
2022-10-14T19:31:54.561Z,11.00
2022-10-14T19:34:25.801Z,10.90
2022-10-14T19:36:58.077Z,10.90
2022-10-14T19:39:31.071Z,10.90
2022-10-14T19:42:00.184Z,10.90
2022-10-14T19:44:27.232Z,10.80
2022-10-14T19:46:55.958Z,10.80
2022-10-14T19:49:24.580Z,10.70
2022-10-14T19:51:51.901Z,10.70
2022-10-14T19:54:19.669Z,10.70
2022-10-14T19:56:46.759Z,10.60
2022-10-14T19:59:14.354Z,10.60
2022-10-14T20:01:41.696Z,10.60
2022-10-14T20:04:09.033Z,10.60
2022-10-14T20:06:38.361Z,10.60
2022-10-14T20:09:06.642Z,10.50
2022-10-14T20:11:34.027Z,10.50
2022-10-14T20:14:01.126Z,10.40
2022-10-14T20:16:28.618Z,10.40
2022-10-14T20:18:56.816Z,10.40
2022-10-14T20:21:24.102Z,10.40
2022-10-14T20:23:51.314Z,10.40
2022-10-14T20:26:21.321Z,10.40
2022-10-14T20:28:50.019Z,10.40
2022-10-14T20:31:20.112Z,10.40
2022-10-14T20:33:47.246Z,10.30
2022-10-14T20:36:17.401Z,10.30
2022-10-14T20:38:45.288Z,10.30
2022-10-14T20:41:16.341Z,10.30
2022-10-14T20:43:44.658Z,10.30
2022-10-14T20:46:13.012Z,10.30
2022-10-14T20:48:42.224Z,10.20
2022-10-14T20:51:13.364Z,10.20
2022-10-14T20:56:10.230Z,10.00
2022-10-14T20:58:38.291Z,9.90
2022-10-14T21:01:11.228Z,10.00
2022-10-14T21:03:42.492Z,10.00
2022-10-14T21:06:14.267Z,9.90
2022-10-14T21:08:42.696Z,9.80
2022-10-14T21:11:15.002Z,9.80
2022-10-14T21:13:45.956Z,9.80
2022-10-14T21:16:25.108Z,9.80
2022-10-14T21:18:57.930Z,9.80
2022-10-14T21:21:29.575Z,9.80
2022-10-14T21:23:57.385Z,9.80
2022-10-14T21:26:25.304Z,9.80
2022-10-14T21:28:52.548Z,9.70
2022-10-14T21:31:20.443Z,9.70
2022-10-14T21:33:48.668Z,9.60
2022-10-14T21:36:17.203Z,9.50
2022-10-14T21:38:44.554Z,9.50
2022-10-14T21:41:12.498Z,9.50
2022-10-14T21:43:41.013Z,9.50
2022-10-14T21:46:12.577Z,9.60
2022-10-14T21:48:40.669Z,9.60
2022-10-14T21:51:11.343Z,9.50
2022-10-14T21:53:40.089Z,9.50
2022-10-14T21:56:08.316Z,9.50
2022-10-14T21:58:36.218Z,9.60
2022-10-14T22:01:07.678Z,9.50
2022-10-14T22:03:35.999Z,9.50
2022-10-14T22:06:06.795Z,9.50
2022-10-14T22:08:37.115Z,9.50
2022-10-14T22:11:05.543Z,9.50
2022-10-14T22:13:34.062Z,9.50
2022-10-14T22:16:01.540Z,9.50
2022-10-14T22:18:28.661Z,9.50
2022-10-14T22:21:06.727Z,9.50
2022-10-14T22:23:34.406Z,9.50
2022-10-14T22:26:02.437Z,9.50
2022-10-14T22:28:30.942Z,9.50
2022-10-14T22:31:14.187Z,9.50
2022-10-14T22:33:42.592Z,9.50
2022-10-14T22:36:19.499Z,9.50
2022-10-14T22:38:51.574Z,9.40
2022-10-14T22:41:20.622Z,9.30
2022-10-14T22:43:50.514Z,9.30
2022-10-14T22:46:20.513Z,9.30
2022-10-14T22:48:49.364Z,9.30
2022-10-14T22:51:19.065Z,9.30
2022-10-14T22:53:47.078Z,9.20
2022-10-14T22:56:16.804Z,9.30
2022-10-14T22:58:43.896Z,9.20
2022-10-14T23:01:13.882Z,9.20
2022-10-14T23:03:41.925Z,9.20
2022-10-14T23:06:12.022Z,9.20
2022-10-14T23:08:40.136Z,9.10
2022-10-14T23:11:07.621Z,9.10
2022-10-14T23:13:35.399Z,9.10
2022-10-14T23:16:05.786Z,9.10
2022-10-14T23:18:36.063Z,9.10
2022-10-14T23:21:13.473Z,9.00
2022-10-14T23:23:41.587Z,9.00
2022-10-14T23:26:10.638Z,9.00
2022-10-14T23:28:38.277Z,9.00
2022-10-14T23:31:12.303Z,9.00
2022-10-14T23:33:40.391Z,9.00
2022-10-14T23:36:10.365Z,9.00
2022-10-14T23:38:37.998Z,9.00
2022-10-14T23:41:06.471Z,9.10
2022-10-14T23:43:33.834Z,9.00
2022-10-14T23:46:01.497Z,8.90
2022-10-14T23:48:28.858Z,8.80
2022-10-14T23:50:56.150Z,8.70
2022-10-14T23:53:23.533Z,8.70
2022-10-14T23:55:50.640Z,8.70
2022-10-14T23:58:17.875Z,8.80
